sensor_id;sensor_type;location;lat;lon;timestamp;pressure;altitude;pressure_sealevel;temperature;humidity
85319;BME280;75722;49.004;12.120;2024-03-08T00:01:39;97962.25;;;-2.80;79.51
85319;BME280;75722;49.004;12.120;2024-03-08T00:04:05;97958.56;;;-2.77;79.56
85319;BME280;75722;49.004;12.120;2024-03-08T00:06:31;97958.88;;;-2.82;80.09
85319;BME280;75722;49.004;12.120;2024-03-08T00:08:57;97954.75;;;-2.86;80.01
85319;BME280;75722;49.004;12.120;2024-03-08T00:11:22;97948.38;;;-2.84;80.02
85319;BME280;75722;49.004;12.120;2024-03-08T00:13:51;97952.41;;;-2.91;79.58
85319;BME280;75722;49.004;12.120;2024-03-08T00:16:17;97947.75;;;-3.00;80.35
85319;BME280;75722;49.004;12.120;2024-03-08T00:18:44;97951.44;;;-2.90;80.37
85319;BME280;75722;49.004;12.120;2024-03-08T00:21:09;97946.28;;;-3.04;79.92
85319;BME280;75722;49.004;12.120;2024-03-08T00:23:37;97939.38;;;-2.94;80.29
85319;BME280;75722;49.004;12.120;2024-03-08T00:26:02;97930.38;;;-3.04;80.21
85319;BME280;75722;49.004;12.120;2024-03-08T00:28:29;97934.06;;;-3.07;80.37
85319;BME280;75722;49.004;12.120;2024-03-08T00:30:56;97927.59;;;-3.03;80.28
85319;BME280;75722;49.004;12.120;2024-03-08T00:33:21;97926.66;;;-3.15;80.62
85319;BME280;75722;49.004;12.120;2024-03-08T00:35:46;97923.59;;;-3.08;80.15
85319;BME280;75722;49.004;12.120;2024-03-08T00:38:12;97921.38;;;-3.15;80.81
85319;BME280;75722;49.004;12.120;2024-03-08T00:40:38;97928.16;;;-3.11;80.68
85319;BME280;75722;49.004;12.120;2024-03-08T00:43:04;97934.41;;;-3.25;80.90
85319;BME280;75722;49.004;12.120;2024-03-08T00:45:30;97923.59;;;-3.35;80.76
85319;BME280;75722;49.004;12.120;2024-03-08T00:47:55;97920.72;;;-3.44;80.76
85319;BME280;75722;49.004;12.120;2024-03-08T00:50:21;97924.00;;;-3.41;81.04
85319;BME280;75722;49.004;12.120;2024-03-08T00:52:46;97918.19;;;-3.20;81.44
85319;BME280;75722;49.004;12.120;2024-03-08T00:55:11;97914.16;;;-3.13;81.08
85319;BME280;75722;49.004;12.120;2024-03-08T00:57:37;97914.78;;;-3.09;81.24
85319;BME280;75722;49.004;12.120;2024-03-08T01:00:05;97915.88;;;-2.99;81.35
85319;BME280;75722;49.004;12.120;2024-03-08T01:02:35;97914.03;;;-2.98;81.49
85319;BME280;75722;49.004;12.120;2024-03-08T01:05:01;97910.97;;;-3.05;81.41
85319;BME280;75722;49.004;12.120;2024-03-08T01:07:26;97910.88;;;-3.03;81.41
85319;BME280;75722;49.004;12.120;2024-03-08T01:09:51;97907.47;;;-2.92;81.60
85319;BME280;75722;49.004;12.120;2024-03-08T01:12:17;97911.38;;;-2.85;81.81
85319;BME280;75722;49.004;12.120;2024-03-08T01:14:42;97897.06;;;-2.83;81.44
85319;BME280;75722;49.004;12.120;2024-03-08T01:17:07;97896.53;;;-2.88;81.65
85319;BME280;75722;49.004;12.120;2024-03-08T01:19:35;97891.88;;;-2.97;81.55
85319;BME280;75722;49.004;12.120;2024-03-08T01:22:00;97884.50;;;-3.18;81.54
85319;BME280;75722;49.004;12.120;2024-03-08T01:24:25;97887.78;;;-3.27;81.56
85319;BME280;75722;49.004;12.120;2024-03-08T01:26:51;97884.50;;;-3.31;81.78
85319;BME280;75722;49.004;12.120;2024-03-08T01:29:16;97885.66;;;-3.09;81.96
85319;BME280;75722;49.004;12.120;2024-03-08T01:31:42;97873.91;;;-3.18;81.45
85319;BME280;75722;49.004;12.120;2024-03-08T01:34:07;97879.94;;;-3.16;81.64
85319;BME280;75722;49.004;12.120;2024-03-08T01:36:33;97865.22;;;-3.33;81.78
85319;BME280;75722;49.004;12.120;2024-03-08T01:38:58;97868.19;;;-3.38;81.63
85319;BME280;75722;49.004;12.120;2024-03-08T01:41:23;97863.41;;;-3.32;81.67
85319;BME280;75722;49.004;12.120;2024-03-08T01:43:49;97854.38;;;-3.17;81.65
85319;BME280;75722;49.004;12.120;2024-03-08T01:46:17;97857.38;;;-3.35;82.07
85319;BME280;75722;49.004;12.120;2024-03-08T01:48:44;97852.81;;;-3.32;82.34
85319;BME280;75722;49.004;12.120;2024-03-08T01:51:10;97857.59;;;-3.38;82.26
85319;BME280;75722;49.004;12.120;2024-03-08T01:53:37;97850.16;;;-3.32;82.35
85319;BME280;75722;49.004;12.120;2024-03-08T01:56:03;97843.19;;;-3.46;82.42
85319;BME280;75722;49.004;12.120;2024-03-08T01:58:29;97842.66;;;-3.39;82.27
85319;BME280;75722;49.004;12.120;2024-03-08T02:00:56;97842.00;;;-3.42;82.54
85319;BME280;75722;49.004;12.120;2024-03-08T02:03:23;97837.25;;;-3.50;82.37
85319;BME280;75722;49.004;12.120;2024-03-08T02:05:48;97837.78;;;-3.58;82.60
85319;BME280;75722;49.004;12.120;2024-03-08T02:08:14;97832.28;;;-3.55;82.82
85319;BME280;75722;49.004;12.120;2024-03-08T02:10:44;97831.13;;;-3.38;82.51
85319;BME280;75722;49.004;12.120;2024-03-08T02:13:10;97836.81;;;-3.44;82.57
85319;BME280;75722;49.004;12.120;2024-03-08T02:15:55;97840.03;;;-3.39;82.83
85319;BME280;75722;49.004;12.120;2024-03-08T02:18:21;97836.50;;;-3.39;82.73
85319;BME280;75722;49.004;12.120;2024-03-08T02:20:49;97831.97;;;-3.50;82.69
85319;BME280;75722;49.004;12.120;2024-03-08T02:23:14;97828.03;;;-3.31;82.90
85319;BME280;75722;49.004;12.120;2024-03-08T02:25:40;97826.44;;;-3.47;82.80
85319;BME280;75722;49.004;12.120;2024-03-08T02:28:09;97822.09;;;-3.48;82.93
85319;BME280;75722;49.004;12.120;2024-03-08T02:30:35;97810.44;;;-3.45;82.55
85319;BME280;75722;49.004;12.120;2024-03-08T02:33:01;97813.19;;;-3.47;83.04
85319;BME280;75722;49.004;12.120;2024-03-08T02:35:26;97819.47;;;-3.48;83.08
85319;BME280;75722;49.004;12.120;2024-03-08T02:37:51;97808.66;;;-3.45;83.30
85319;BME280;75722;49.004;12.120;2024-03-08T02:40:17;97806.53;;;-3.40;83.31
85319;BME280;75722;49.004;12.120;2024-03-08T02:42:42;97803.38;;;-3.58;83.13
85319;BME280;75722;49.004;12.120;2024-03-08T02:45:08;97798.63;;;-3.66;83.04
85319;BME280;75722;49.004;12.120;2024-03-08T02:47:35;97802.19;;;-3.67;83.23
85319;BME280;75722;49.004;12.120;2024-03-08T02:50:00;97800.72;;;-3.58;83.29
85319;BME280;75722;49.004;12.120;2024-03-08T02:52:26;97796.06;;;-3.67;83.15
85319;BME280;75722;49.004;12.120;2024-03-08T02:54:52;97797.88;;;-3.68;83.33
85319;BME280;75722;49.004;12.120;2024-03-08T02:57:17;97794.69;;;-3.60;83.36
85319;BME280;75722;49.004;12.120;2024-03-08T02:59:43;97801.38;;;-3.67;83.52
85319;BME280;75722;49.004;12.120;2024-03-08T03:02:09;97796.28;;;-3.70;83.07
85319;BME280;75722;49.004;12.120;2024-03-08T03:04:35;97799.34;;;-3.64;83.47
85319;BME280;75722;49.004;12.120;2024-03-08T03:07:01;97801.13;;;-3.51;83.58
85319;BME280;75722;49.004;12.120;2024-03-08T03:09:26;97801.03;;;-3.63;83.26
85319;BME280;75722;49.004;12.120;2024-03-08T03:11:56;97800.50;;;-3.68;83.52
85319;BME280;75722;49.004;12.120;2024-03-08T03:14:22;97795.31;;;-3.69;83.22
85319;BME280;75722;49.004;12.120;2024-03-08T03:16:47;97792.69;;;-3.56;83.92
85319;BME280;75722;49.004;12.120;2024-03-08T03:19:12;97788.53;;;-3.48;83.59
85319;BME280;75722;49.004;12.120;2024-03-08T03:21:38;97795.31;;;-3.30;83.65
85319;BME280;75722;49.004;12.120;2024-03-08T03:24:04;97792.75;;;-3.32;83.95
85319;BME280;75722;49.004;12.120;2024-03-08T03:26:35;97789.03;;;-3.29;83.33
85319;BME280;75722;49.004;12.120;2024-03-08T03:29:02;97779.84;;;-3.50;83.40
85319;BME280;75722;49.004;12.120;2024-03-08T03:31:28;97788.34;;;-3.57;83.65
85319;BME280;75722;49.004;12.120;2024-03-08T03:33:54;97784.50;;;-3.40;83.33
85319;BME280;75722;49.004;12.120;2024-03-08T03:36:19;97780.38;;;-3.31;83.55
85319;BME280;75722;49.004;12.120;2024-03-08T03:38:45;97775.59;;;-3.39;83.52
85319;BME280;75722;49.004;12.120;2024-03-08T03:41:10;97785.59;;;-3.56;83.38
85319;BME280;75722;49.004;12.120;2024-03-08T03:43:36;97786.09;;;-3.51;83.75
85319;BME280;75722;49.004;12.120;2024-03-08T03:46:08;97780.91;;;-3.52;83.56
85319;BME280;75722;49.004;12.120;2024-03-08T03:48:35;97767.56;;;-3.51;83.68
85319;BME280;75722;49.004;12.120;2024-03-08T03:51:01;97774.25;;;-3.71;83.52
85319;BME280;75722;49.004;12.120;2024-03-08T03:53:26;97770.56;;;-3.81;83.76
85319;BME280;75722;49.004;12.120;2024-03-08T03:55:52;97770.97;;;-3.88;83.79
85319;BME280;75722;49.004;12.120;2024-03-08T03:58:17;97768.22;;;-3.86;83.94
85319;BME280;75722;49.004;12.120;2024-03-08T04:00:48;97767.47;;;-3.88;84.05
85319;BME280;75722;49.004;12.120;2024-03-08T04:03:13;97766.09;;;-3.68;83.95
85319;BME280;75722;49.004;12.120;2024-03-08T04:05:39;97761.97;;;-3.72;84.00
85319;BME280;75722;49.004;12.120;2024-03-08T04:08:04;97763.97;;;-3.76;83.98
85319;BME280;75722;49.004;12.120;2024-03-08T04:10:31;97768.84;;;-3.69;84.00
85319;BME280;75722;49.004;12.120;2024-03-08T04:12:56;97762.50;;;-3.67;83.98
85319;BME280;75722;49.004;12.120;2024-03-08T04:15:22;97770.03;;;-3.74;83.85
85319;BME280;75722;49.004;12.120;2024-03-08T04:17:48;97761.25;;;-3.87;83.92
85319;BME280;75722;49.004;12.120;2024-03-08T04:20:13;97761.16;;;-3.98;83.66
85319;BME280;75722;49.004;12.120;2024-03-08T04:22:39;97760.28;;;-3.99;84.14
85319;BME280;75722;49.004;12.120;2024-03-08T04:25:05;97761.03;;;-4.10;83.85
85319;BME280;75722;49.004;12.120;2024-03-08T04:27:34;97768.50;;;-4.17;84.06
85319;BME280;75722;49.004;12.120;2024-03-08T04:30:00;97755.09;;;-4.14;83.97
85319;BME280;75722;49.004;12.120;2024-03-08T04:32:25;97748.72;;;-4.11;83.75
85319;BME280;75722;49.004;12.120;2024-03-08T04:34:51;97753.22;;;-3.98;84.18
85319;BME280;75722;49.004;12.120;2024-03-08T04:37:16;97755.00;;;-3.99;83.79
85319;BME280;75722;49.004;12.120;2024-03-08T04:39:47;97749.81;;;-4.01;84.25
85319;BME280;75722;49.004;12.120;2024-03-08T04:42:12;97738.16;;;-3.98;84.45
85319;BME280;75722;49.004;12.120;2024-03-08T04:44:38;97743.25;;;-4.08;84.11
85319;BME280;75722;49.004;12.120;2024-03-08T04:47:04;97742.16;;;-4.18;83.95
85319;BME280;75722;49.004;12.120;2024-03-08T04:49:33;97742.16;;;-4.18;84.14
85319;BME280;75722;49.004;12.120;2024-03-08T04:52:04;97738.50;;;-4.16;84.29
85319;BME280;75722;49.004;12.120;2024-03-08T04:54:30;97742.50;;;-3.97;84.21
85319;BME280;75722;49.004;12.120;2024-03-08T04:56:56;97744.22;;;-3.96;84.29
85319;BME280;75722;49.004;12.120;2024-03-08T04:59:21;97744.94;;;-3.94;84.39
85319;BME280;75722;49.004;12.120;2024-03-08T05:01:47;97748.03;;;-4.00;84.30
85319;BME280;75722;49.004;12.120;2024-03-08T05:04:13;97739.44;;;-4.04;84.27
85319;BME280;75722;49.004;12.120;2024-03-08T05:06:38;97741.44;;;-4.07;84.54
85319;BME280;75722;49.004;12.120;2024-03-08T05:09:03;97742.16;;;-4.18;84.17
85319;BME280;75722;49.004;12.120;2024-03-08T05:11:45;97746.19;;;-4.39;84.30
85319;BME280;75722;49.004;12.120;2024-03-08T05:14:11;97742.13;;;-4.31;84.37
85319;BME280;75722;49.004;12.120;2024-03-08T05:16:42;97740.28;;;-4.03;84.46
85319;BME280;75722;49.004;12.120;2024-03-08T05:19:07;97730.88;;;-4.07;84.42
85319;BME280;75722;49.004;12.120;2024-03-08T05:21:32;97739.13;;;-3.99;84.08
85319;BME280;75722;49.004;12.120;2024-03-08T05:23:58;97733.41;;;-4.19;84.19
85319;BME280;75722;49.004;12.120;2024-03-08T05:26:23;97732.63;;;-4.34;84.40
85319;BME280;75722;49.004;12.120;2024-03-08T05:28:48;97735.81;;;-4.29;84.38
85319;BME280;75722;49.004;12.120;2024-03-08T05:31:21;97732.94;;;-4.26;84.24
85319;BME280;75722;49.004;12.120;2024-03-08T05:33:49;97734.97;;;-4.29;84.33
85319;BME280;75722;49.004;12.120;2024-03-08T05:36:15;97730.31;;;-4.26;84.15
85319;BME280;75722;49.004;12.120;2024-03-08T05:38:42;97734.34;;;-4.20;84.64
85319;BME280;75722;49.004;12.120;2024-03-08T05:41:09;97733.94;;;-4.14;84.46
85319;BME280;75722;49.004;12.120;2024-03-08T05:43:34;97732.44;;;-4.05;84.38
85319;BME280;75722;49.004;12.120;2024-03-08T05:45:59;97728.97;;;-3.92;84.40
85319;BME280;75722;49.004;12.120;2024-03-08T05:48:25;97727.78;;;-3.88;84.52
85319;BME280;75722;49.004;12.120;2024-03-08T05:50:50;97727.78;;;-3.75;84.50
85319;BME280;75722;49.004;12.120;2024-03-08T05:53:15;97732.25;;;-3.89;84.57
85319;BME280;75722;49.004;12.120;2024-03-08T05:55:41;97729.16;;;-3.82;84.60
85319;BME280;75722;49.004;12.120;2024-03-08T05:58:06;97727.38;;;-3.69;84.45
85319;BME280;75722;49.004;12.120;2024-03-08T06:00:33;97729.25;;;-3.58;84.34
85319;BME280;75722;49.004;12.120;2024-03-08T06:02:59;97726.06;;;-3.37;84.05
85319;BME280;75722;49.004;12.120;2024-03-08T06:05:24;97712.94;;;-2.90;84.47
85319;BME280;75722;49.004;12.120;2024-03-08T06:07:50;97715.66;;;-2.42;84.25
85319;BME280;75722;49.004;12.120;2024-03-08T06:10:15;97720.91;;;-2.18;84.55
85319;BME280;75722;49.004;12.120;2024-03-08T06:12:42;97718.31;;;-1.72;84.04
85319;BME280;75722;49.004;12.120;2024-03-08T06:15:08;97711.91;;;-1.47;82.97
85319;BME280;75722;49.004;12.120;2024-03-08T06:17:35;97711.16;;;-1.03;80.79
85319;BME280;75722;49.004;12.120;2024-03-08T06:20:01;97702.56;;;0.02;76.49
85319;BME280;75722;49.004;12.120;2024-03-08T06:22:26;97694.66;;;2.02;69.25
85319;BME280;75722;49.004;12.120;2024-03-08T06:24:52;97691.03;;;3.70;64.08
85319;BME280;75722;49.004;12.120;2024-03-08T06:27:19;97689.84;;;5.22;58.36
85319;BME280;75722;49.004;12.120;2024-03-08T06:29:44;97697.28;;;6.12;53.92
85319;BME280;75722;49.004;12.120;2024-03-08T06:32:10;97680.75;;;7.20;51.05
85319;BME280;75722;49.004;12.120;2024-03-08T06:34:35;97686.06;;;7.60;49.71
85319;BME280;75722;49.004;12.120;2024-03-08T06:37:00;97687.88;;;7.13;49.18
85319;BME280;75722;49.004;12.120;2024-03-08T06:39:27;97701.66;;;3.80;55.95
85319;BME280;75722;49.004;12.120;2024-03-08T06:41:54;97713.41;;;2.30;61.28
85319;BME280;75722;49.004;12.120;2024-03-08T06:44:19;97711.13;;;1.78;63.59
85319;BME280;75722;49.004;12.120;2024-03-08T06:46:47;97711.00;;;1.40;65.01
85319;BME280;75722;49.004;12.120;2024-03-08T06:49:13;97711.28;;;1.37;66.09
85319;BME280;75722;49.004;12.120;2024-03-08T06:51:38;97705.94;;;1.37;65.75
85319;BME280;75722;49.004;12.120;2024-03-08T06:54:06;97709.88;;;1.62;65.17
85319;BME280;75722;49.004;12.120;2024-03-08T06:56:34;97705.22;;;1.84;64.79
85319;BME280;75722;49.004;12.120;2024-03-08T06:58:59;97705.34;;;1.92;65.20
85319;BME280;75722;49.004;12.120;2024-03-08T07:01:25;97710.81;;;2.01;64.52
85319;BME280;75722;49.004;12.120;2024-03-08T07:03:50;97709.97;;;2.00;64.71
85319;BME280;75722;49.004;12.120;2024-03-08T07:06:18;97701.47;;;2.25;64.46
85319;BME280;75722;49.004;12.120;2024-03-08T07:08:44;97698.34;;;2.39;63.39
85319;BME280;75722;49.004;12.120;2024-03-08T07:11:11;97687.94;;;2.64;63.50
85319;BME280;75722;49.004;12.120;2024-03-08T07:13:37;97694.53;;;2.80;63.17
85319;BME280;75722;49.004;12.120;2024-03-08T07:16:04;97689.22;;;3.16;61.93
85319;BME280;75722;49.004;12.120;2024-03-08T07:18:30;97692.97;;;3.05;62.13
85319;BME280;75722;49.004;12.120;2024-03-08T07:20:56;97687.28;;;3.08;62.64
85319;BME280;75722;49.004;12.120;2024-03-08T07:23:22;97681.03;;;3.18;63.01
85319;BME280;75722;49.004;12.120;2024-03-08T07:26:06;97678.50;;;3.34;62.32
85319;BME280;75722;49.004;12.120;2024-03-08T07:28:31;97665.88;;;3.63;61.12
85319;BME280;75722;49.004;12.120;2024-03-08T07:31:00;97679.84;;;3.93;59.97
85319;BME280;75722;49.004;12.120;2024-03-08T07:33:51;97678.81;;;4.13;59.87
85319;BME280;75722;49.004;12.120;2024-03-08T07:36:18;97683.78;;;4.07;59.92
85319;BME280;75722;49.004;12.120;2024-03-08T07:38:44;97677.84;;;4.48;58.68
85319;BME280;75722;49.004;12.120;2024-03-08T07:41:12;97677.72;;;4.32;57.82
85319;BME280;75722;49.004;12.120;2024-03-08T07:43:38;97679.75;;;4.73;58.19
85319;BME280;75722;49.004;12.120;2024-03-08T07:46:03;97684.50;;;4.79;57.53
85319;BME280;75722;49.004;12.120;2024-03-08T07:48:28;97681.06;;;4.60;56.16
85319;BME280;75722;49.004;12.120;2024-03-08T07:50:55;97675.63;;;4.44;56.55
85319;BME280;75722;49.004;12.120;2024-03-08T07:53:21;97673.66;;;4.97;55.76
85319;BME280;75722;49.004;12.120;2024-03-08T07:55:47;97680.53;;;5.00;55.80
85319;BME280;75722;49.004;12.120;2024-03-08T07:58:12;97675.53;;;5.13;54.52
85319;BME280;75722;49.004;12.120;2024-03-08T08:00:38;97675.09;;;5.51;54.55
85319;BME280;75722;49.004;12.120;2024-03-08T08:03:04;97673.91;;;6.21;53.55
85319;BME280;75722;49.004;12.120;2024-03-08T08:05:30;97665.03;;;5.87;53.09
85319;BME280;75722;49.004;12.120;2024-03-08T08:08:00;97662.16;;;5.97;53.08
85319;BME280;75722;49.004;12.120;2024-03-08T08:10:28;97668.53;;;6.21;52.87
85319;BME280;75722;49.004;12.120;2024-03-08T08:12:53;97642.16;;;11.60;43.06
85319;BME280;75722;49.004;12.120;2024-03-08T08:15:19;97638.16;;;13.88;36.93
85319;BME280;75722;49.004;12.120;2024-03-08T08:17:45;97636.13;;;17.72;31.97
85319;BME280;75722;49.004;12.120;2024-03-08T08:20:11;97641.28;;;20.70;28.35
85319;BME280;75722;49.004;12.120;2024-03-08T08:22:42;97640.94;;;22.30;25.81
85319;BME280;75722;49.004;12.120;2024-03-08T08:25:10;97639.25;;;22.66;25.32
85319;BME280;75722;49.004;12.120;2024-03-08T08:27:38;97640.38;;;20.54;26.92
85319;BME280;75722;49.004;12.120;2024-03-08T08:30:05;97636.97;;;21.53;25.96
85319;BME280;75722;49.004;12.120;2024-03-08T08:32:36;97634.25;;;19.26;28.23
85319;BME280;75722;49.004;12.120;2024-03-08T08:35:02;97627.38;;;18.78;29.37
85319;BME280;75722;49.004;12.120;2024-03-08T08:37:28;97624.38;;;22.36;25.58
85319;BME280;75722;49.004;12.120;2024-03-08T08:39:54;97628.44;;;19.99;26.60
85319;BME280;75722;49.004;12.120;2024-03-08T08:42:19;97624.09;;;18.42;28.03
85319;BME280;75722;49.004;12.120;2024-03-08T08:44:44;97622.22;;;19.27;27.45
85319;BME280;75722;49.004;12.120;2024-03-08T08:47:11;97612.97;;;20.74;26.14
85319;BME280;75722;49.004;12.120;2024-03-08T08:49:36;97617.47;;;20.05;26.77
85319;BME280;75722;49.004;12.120;2024-03-08T08:52:02;97605.63;;;22.17;25.12
85319;BME280;75722;49.004;12.120;2024-03-08T08:54:28;97607.22;;;22.70;24.35
85319;BME280;75722;49.004;12.120;2024-03-08T08:56:53;97610.31;;;20.42;25.94
85319;BME280;75722;49.004;12.120;2024-03-08T08:59:19;97601.16;;;23.34;24.23
85319;BME280;75722;49.004;12.120;2024-03-08T09:01:45;97605.38;;;21.98;25.27
85319;BME280;75722;49.004;12.120;2024-03-08T09:04:15;97599.94;;;21.02;26.39
85319;BME280;75722;49.004;12.120;2024-03-08T09:06:40;97588.34;;;24.29;23.16
85319;BME280;75722;49.004;12.120;2024-03-08T09:09:06;97603.16;;;22.21;24.05
85319;BME280;75722;49.004;12.120;2024-03-08T09:11:34;97588.25;;;24.39;22.72
85319;BME280;75722;49.004;12.120;2024-03-08T09:13:59;97595.94;;;22.51;24.50
85319;BME280;75722;49.004;12.120;2024-03-08T09:16:25;97593.94;;;21.21;25.88
85319;BME280;75722;49.004;12.120;2024-03-08T09:18:51;97586.53;;;23.39;23.78
85319;BME280;75722;49.004;12.120;2024-03-08T09:21:16;97577.59;;;27.06;20.54
85319;BME280;75722;49.004;12.120;2024-03-08T09:23:42;97576.56;;;24.96;21.72
85319;BME280;75722;49.004;12.120;2024-03-08T09:26:10;97573.16;;;25.43;21.41
85319;BME280;75722;49.004;12.120;2024-03-08T09:28:38;97582.47;;;22.28;24.48
85319;BME280;75722;49.004;12.120;2024-03-08T09:31:03;97575.56;;;23.18;23.69
85319;BME280;75722;49.004;12.120;2024-03-08T09:33:30;97568.31;;;23.73;22.72
85319;BME280;75722;49.004;12.120;2024-03-08T09:35:56;97560.00;;;26.07;20.89
85319;BME280;75722;49.004;12.120;2024-03-08T09:38:23;97559.75;;;25.70;21.28
85319;BME280;75722;49.004;12.120;2024-03-08T09:40:50;97557.84;;;24.64;21.37
85319;BME280;75722;49.004;12.120;2024-03-08T09:43:15;97559.72;;;22.78;23.46
85319;BME280;75722;49.004;12.120;2024-03-08T09:45:42;97555.78;;;25.57;21.21
85319;BME280;75722;49.004;12.120;2024-03-08T09:48:11;97585.25;;;21.76;23.26
85319;BME280;75722;49.004;12.120;2024-03-08T09:50:40;97545.91;;;22.89;23.88
85319;BME280;75722;49.004;12.120;2024-03-08T09:53:06;97542.22;;;26.55;20.87
85319;BME280;75722;49.004;12.120;2024-03-08T09:55:36;97554.94;;;26.84;19.91
85319;BME280;75722;49.004;12.120;2024-03-08T09:58:05;97553.66;;;22.87;23.25
85319;BME280;75722;49.004;12.120;2024-03-08T10:00:47;97552.88;;;25.09;20.88
85319;BME280;75722;49.004;12.120;2024-03-08T10:03:13;97540.69;;;24.07;22.56
85319;BME280;75722;49.004;12.120;2024-03-08T10:05:40;97532.75;;;25.95;20.99
85319;BME280;75722;49.004;12.120;2024-03-08T10:08:06;97544.16;;;22.16;23.74
85319;BME280;75722;49.004;12.120;2024-03-08T10:10:34;97528.59;;;28.07;19.67
85319;BME280;75722;49.004;12.120;2024-03-08T10:12:59;97530.28;;;24.53;21.84
85319;BME280;75722;49.004;12.120;2024-03-08T10:15:27;97518.84;;;28.27;19.33
85319;BME280;75722;49.004;12.120;2024-03-08T10:17:58;97535.72;;;20.86;25.23
85319;BME280;75722;49.004;12.120;2024-03-08T10:20:24;97528.53;;;23.28;23.56
85319;BME280;75722;49.004;12.120;2024-03-08T10:22:49;97521.13;;;25.40;21.91
85319;BME280;75722;49.004;12.120;2024-03-08T10:25:15;97518.13;;;25.36;21.18
85319;BME280;75722;49.004;12.120;2024-03-08T10:27:40;97513.72;;;26.77;20.46
85319;BME280;75722;49.004;12.120;2024-03-08T10:30:16;97504.59;;;29.36;18.94
85319;BME280;75722;49.004;12.120;2024-03-08T10:32:45;97510.22;;;31.83;16.65
85319;BME280;75722;49.004;12.120;2024-03-08T10:35:11;97506.66;;;26.10;20.68
85319;BME280;75722;49.004;12.120;2024-03-08T10:40:16;97507.66;;;27.40;19.83
85319;BME280;75722;49.004;12.120;2024-03-08T10:42:52;97511.38;;;27.59;19.95
85319;BME280;75722;49.004;12.120;2024-03-08T10:45:27;97494.72;;;28.94;18.40
85319;BME280;75722;49.004;12.120;2024-03-08T10:50:32;97507.84;;;23.26;23.12
85319;BME280;75722;49.004;12.120;2024-03-08T10:53:00;97492.63;;;25.73;21.15
85319;BME280;75722;49.004;12.120;2024-03-08T10:55:28;97494.09;;;26.32;20.47
85319;BME280;75722;49.004;12.120;2024-03-08T10:57:53;97482.41;;;27.74;19.81
85319;BME280;75722;49.004;12.120;2024-03-08T11:00:19;97473.22;;;27.50;19.93
85319;BME280;75722;49.004;12.120;2024-03-08T11:02:52;97475.69;;;27.52;19.57
85319;BME280;75722;49.004;12.120;2024-03-08T11:05:51;97476.78;;;27.05;20.01
85319;BME280;75722;49.004;12.120;2024-03-08T11:08:19;97461.38;;;32.89;15.91
85319;BME280;75722;49.004;12.120;2024-03-08T11:10:49;97458.53;;;30.13;17.81
85319;BME280;75722;49.004;12.120;2024-03-08T11:13:34;97456.06;;;32.00;16.66
85319;BME280;75722;49.004;12.120;2024-03-08T11:16:01;97453.41;;;30.93;17.33
85319;BME280;75722;49.004;12.120;2024-03-08T11:18:26;97447.84;;;31.27;16.68
85319;BME280;75722;49.004;12.120;2024-03-08T11:20:55;97439.66;;;29.27;18.21
85319;BME280;75722;49.004;12.120;2024-03-08T11:23:23;97434.59;;;28.35;19.40
85319;BME280;75722;49.004;12.120;2024-03-08T11:25:51;97431.84;;;29.94;17.60
85319;BME280;75722;49.004;12.120;2024-03-08T11:28:23;97424.84;;;29.53;17.59
85319;BME280;75722;49.004;12.120;2024-03-08T11:33:31;97422.22;;;26.72;19.90
85319;BME280;75722;49.004;12.120;2024-03-08T11:36:12;97406.28;;;30.53;17.00
85319;BME280;75722;49.004;12.120;2024-03-08T11:38:42;97401.28;;;31.99;16.33
85319;BME280;75722;49.004;12.120;2024-03-08T11:41:09;97405.19;;;31.39;16.55
85319;BME280;75722;49.004;12.120;2024-03-08T11:43:38;97404.94;;;28.30;18.80
85319;BME280;75722;49.004;12.120;2024-03-08T11:46:14;97392.81;;;27.86;19.27
85319;BME280;75722;49.004;12.120;2024-03-08T11:48:41;97408.25;;;25.93;20.72
85319;BME280;75722;49.004;12.120;2024-03-08T11:51:10;97397.53;;;27.31;19.88
85319;BME280;75722;49.004;12.120;2024-03-08T11:53:36;97391.22;;;26.42;19.78
85319;BME280;75722;49.004;12.120;2024-03-08T11:56:12;97386.81;;;28.42;18.94
85319;BME280;75722;49.004;12.120;2024-03-08T11:58:38;97382.25;;;25.28;20.65
85319;BME280;75722;49.004;12.120;2024-03-08T12:01:09;97375.19;;;25.02;21.36
85319;BME280;75722;49.004;12.120;2024-03-08T12:03:38;97370.16;;;25.99;20.48
85319;BME280;75722;49.004;12.120;2024-03-08T12:06:04;97369.22;;;23.58;22.19
85319;BME280;75722;49.004;12.120;2024-03-08T12:08:32;97366.50;;;22.38;23.55
85319;BME280;75722;49.004;12.120;2024-03-08T12:10:58;97355.72;;;24.69;21.84
85319;BME280;75722;49.004;12.120;2024-03-08T12:13:27;97349.66;;;24.47;22.35
85319;BME280;75722;49.004;12.120;2024-03-08T12:15:56;97342.19;;;24.48;22.76
85319;BME280;75722;49.004;12.120;2024-03-08T12:18:24;97342.16;;;25.39;21.43
85319;BME280;75722;49.004;12.120;2024-03-08T12:20:49;97338.69;;;22.80;23.72
85319;BME280;75722;49.004;12.120;2024-03-08T12:23:15;97349.00;;;19.46;26.59
85319;BME280;75722;49.004;12.120;2024-03-08T12:25:41;97331.19;;;22.40;24.34
85319;BME280;75722;49.004;12.120;2024-03-08T12:28:11;97329.75;;;22.53;23.94
85319;BME280;75722;49.004;12.120;2024-03-08T12:30:51;97321.50;;;23.77;22.27
85319;BME280;75722;49.004;12.120;2024-03-08T12:33:22;97321.44;;;22.59;23.36
85319;BME280;75722;49.004;12.120;2024-03-08T12:35:54;97319.66;;;21.62;24.29
85319;BME280;75722;49.004;12.120;2024-03-08T12:38:21;97313.88;;;22.75;22.85
85319;BME280;75722;49.004;12.120;2024-03-08T12:40:50;97311.22;;;20.75;25.29
85319;BME280;75722;49.004;12.120;2024-03-08T12:43:16;97313.13;;;19.20;27.05
85319;BME280;75722;49.004;12.120;2024-03-08T12:45:41;97305.16;;;18.81;27.08
85319;BME280;75722;49.004;12.120;2024-03-08T12:48:12;97312.38;;;18.32;27.90
85319;BME280;75722;49.004;12.120;2024-03-08T12:50:42;97304.53;;;17.29;28.46
85319;BME280;75722;49.004;12.120;2024-03-08T12:53:12;97312.00;;;17.34;28.43
85319;BME280;75722;49.004;12.120;2024-03-08T12:55:38;97313.34;;;17.31;29.49
85319;BME280;75722;49.004;12.120;2024-03-08T12:58:05;97309.53;;;16.98;29.01
85319;BME280;75722;49.004;12.120;2024-03-08T13:00:33;97305.66;;;14.76;32.11